sensor_id;sensor_type;location;lat;lon;timestamp;temperature;humidity
41882;DHT22;27562;47.524;12.404;2023-07-09T00:00:57;18.10;99.90
41882;DHT22;27562;47.524;12.404;2023-07-09T00:03:22;18.10;99.90
41882;DHT22;27562;47.524;12.404;2023-07-09T00:05:49;18.10;99.90
41882;DHT22;27562;47.524;12.404;2023-07-09T00:08:29;18.10;99.90
41882;DHT22;27562;47.524;12.404;2023-07-09T00:10:56;18.10;99.90
41882;DHT22;27562;47.524;12.404;2023-07-09T00:13:24;18.10;99.90
41882;DHT22;27562;47.524;12.404;2023-07-09T00:15:50;18.10;99.90
41882;DHT22;27562;47.524;12.404;2023-07-09T00:18:16;18.00;99.90
41882;DHT22;27562;47.524;12.404;2023-07-09T00:20:43;17.90;99.90
41882;DHT22;27562;47.524;12.404;2023-07-09T00:23:10;17.80;99.90
41882;DHT22;27562;47.524;12.404;2023-07-09T00:25:45;17.70;99.90
41882;DHT22;27562;47.524;12.404;2023-07-09T00:28:16;17.70;99.90
41882;DHT22;27562;47.524;12.404;2023-07-09T00:30:43;17.80;99.90
41882;DHT22;27562;47.524;12.404;2023-07-09T00:33:14;17.80;99.90
41882;DHT22;27562;47.524;12.404;2023-07-09T00:35:43;17.70;99.90
41882;DHT22;27562;47.524;12.404;2023-07-09T00:38:20;17.70;99.90
41882;DHT22;27562;47.524;12.404;2023-07-09T00:41:12;17.70;99.90
41882;DHT22;27562;47.524;12.404;2023-07-09T00:43:43;17.70;99.90
41882;DHT22;27562;47.524;12.404;2023-07-09T00:49:09;17.60;99.90
41882;DHT22;27562;47.524;12.404;2023-07-09T00:51:40;17.60;99.90
41882;DHT22;27562;47.524;12.404;2023-07-09T00:54:22;17.60;99.90
41882;DHT22;27562;47.524;12.404;2023-07-09T00:56:51;17.60;99.90
41882;DHT22;27562;47.524;12.404;2023-07-09T00:59:21;17.70;99.90
41882;DHT22;27562;47.524;12.404;2023-07-09T01:01:49;17.70;99.90
41882;DHT22;27562;47.524;12.404;2023-07-09T01:04:17;17.70;99.90
41882;DHT22;27562;47.524;12.404;2023-07-09T01:06:52;17.70;99.90
41882;DHT22;27562;47.524;12.404;2023-07-09T01:09:18;17.70;99.90
41882;DHT22;27562;47.524;12.404;2023-07-09T01:11:44;17.60;99.90
41882;DHT22;27562;47.524;12.404;2023-07-09T01:14:16;17.50;99.90
41882;DHT22;27562;47.524;12.404;2023-07-09T01:16:49;17.40;99.90
41882;DHT22;27562;47.524;12.404;2023-07-09T01:19:23;17.30;99.90
41882;DHT22;27562;47.524;12.404;2023-07-09T01:21:53;17.30;99.90
41882;DHT22;27562;47.524;12.404;2023-07-09T01:24:49;17.30;99.90
41882;DHT22;27562;47.524;12.404;2023-07-09T01:27:16;17.30;99.90
41882;DHT22;27562;47.524;12.404;2023-07-09T01:29:43;17.40;99.90
41882;DHT22;27562;47.524;12.404;2023-07-09T01:32:14;17.30;99.90
41882;DHT22;27562;47.524;12.404;2023-07-09T01:34:40;17.30;99.90
41882;DHT22;27562;47.524;12.404;2023-07-09T01:37:09;17.30;99.90
41882;DHT22;27562;47.524;12.404;2023-07-09T01:39:34;17.30;99.90
41882;DHT22;27562;47.524;12.404;2023-07-09T01:42:01;17.40;99.90
41882;DHT22;27562;47.524;12.404;2023-07-09T01:44:27;17.30;99.90
41882;DHT22;27562;47.524;12.404;2023-07-09T01:46:54;17.20;99.90
41882;DHT22;27562;47.524;12.404;2023-07-09T01:49:20;17.10;99.90
41882;DHT22;27562;47.524;12.404;2023-07-09T01:51:47;17.10;99.90
41882;DHT22;27562;47.524;12.404;2023-07-09T01:54:15;17.00;99.90
41882;DHT22;27562;47.524;12.404;2023-07-09T01:56:43;17.00;99.90
41882;DHT22;27562;47.524;12.404;2023-07-09T01:59:08;16.90;99.90
41882;DHT22;27562;47.524;12.404;2023-07-09T02:01:36;16.90;99.90
41882;DHT22;27562;47.524;12.404;2023-07-09T02:04:03;17.00;99.90
41882;DHT22;27562;47.524;12.404;2023-07-09T02:06:29;16.90;99.90
41882;DHT22;27562;47.524;12.404;2023-07-09T02:08:57;17.00;99.90
41882;DHT22;27562;47.524;12.404;2023-07-09T02:11:24;17.00;99.90
41882;DHT22;27562;47.524;12.404;2023-07-09T02:13:50;17.00;99.90
41882;DHT22;27562;47.524;12.404;2023-07-09T02:16:15;16.90;99.90
41882;DHT22;27562;47.524;12.404;2023-07-09T02:18:41;16.80;99.90
41882;DHT22;27562;47.524;12.404;2023-07-09T02:21:06;16.70;99.90
41882;DHT22;27562;47.524;12.404;2023-07-09T02:23:32;16.70;99.90
41882;DHT22;27562;47.524;12.404;2023-07-09T02:25:58;16.70;99.90
41882;DHT22;27562;47.524;12.404;2023-07-09T02:28:23;16.70;99.90
41882;DHT22;27562;47.524;12.404;2023-07-09T02:30:49;16.80;99.90
41882;DHT22;27562;47.524;12.404;2023-07-09T02:33:15;16.80;99.90
41882;DHT22;27562;47.524;12.404;2023-07-09T02:35:40;16.80;99.90
41882;DHT22;27562;47.524;12.404;2023-07-09T02:38:06;16.90;99.90
41882;DHT22;27562;47.524;12.404;2023-07-09T02:40:31;16.90;99.90
41882;DHT22;27562;47.524;12.404;2023-07-09T02:42:59;16.90;99.90
41882;DHT22;27562;47.524;12.404;2023-07-09T02:45:25;16.80;99.90
41882;DHT22;27562;47.524;12.404;2023-07-09T02:47:50;16.70;99.90
41882;DHT22;27562;47.524;12.404;2023-07-09T02:50:16;16.60;99.90
41882;DHT22;27562;47.524;12.404;2023-07-09T02:52:41;16.50;99.90
41882;DHT22;27562;47.524;12.404;2023-07-09T02:55:08;16.50;99.90
41882;DHT22;27562;47.524;12.404;2023-07-09T02:57:34;16.50;99.90
41882;DHT22;27562;47.524;12.404;2023-07-09T02:59:59;16.50;99.90
41882;DHT22;27562;47.524;12.404;2023-07-09T03:02:25;16.50;99.90
41882;DHT22;27562;47.524;12.404;2023-07-09T03:04:51;16.60;99.90
41882;DHT22;27562;47.524;12.404;2023-07-09T03:07:17;16.60;99.90
41882;DHT22;27562;47.524;12.404;2023-07-09T03:09:43;16.60;99.90
41882;DHT22;27562;47.524;12.404;2023-07-09T03:12:09;16.70;99.90
41882;DHT22;27562;47.524;12.404;2023-07-09T03:14:35;16.70;99.90
41882;DHT22;27562;47.524;12.404;2023-07-09T03:17:01;16.70;99.90
41882;DHT22;27562;47.524;12.404;2023-07-09T03:19:27;16.80;99.90
41882;DHT22;27562;47.524;12.404;2023-07-09T03:21:53;16.80;99.90
41882;DHT22;27562;47.524;12.404;2023-07-09T03:24:19;16.80;99.90
41882;DHT22;27562;47.524;12.404;2023-07-09T03:26:48;16.80;99.90
41882;DHT22;27562;47.524;12.404;2023-07-09T03:29:13;16.90;99.90
41882;DHT22;27562;47.524;12.404;2023-07-09T03:31:39;16.80;99.90
41882;DHT22;27562;47.524;12.404;2023-07-09T03:34:05;16.90;99.90
41882;DHT22;27562;47.524;12.404;2023-07-09T03:36:30;16.90;99.90
41882;DHT22;27562;47.524;12.404;2023-07-09T03:38:56;16.90;99.90
41882;DHT22;27562;47.524;12.404;2023-07-09T03:41:22;16.90;99.90
41882;DHT22;27562;47.524;12.404;2023-07-09T03:43:47;16.80;99.90
41882;DHT22;27562;47.524;12.404;2023-07-09T03:46:15;16.80;99.90
41882;DHT22;27562;47.524;12.404;2023-07-09T03:48:41;16.80;99.90
41882;DHT22;27562;47.524;12.404;2023-07-09T03:51:06;16.70;99.90
41882;DHT22;27562;47.524;12.404;2023-07-09T03:53:32;16.60;99.90
41882;DHT22;27562;47.524;12.404;2023-07-09T03:55:58;16.50;99.90
41882;DHT22;27562;47.524;12.404;2023-07-09T03:58:25;16.40;99.90
41882;DHT22;27562;47.524;12.404;2023-07-09T04:00:52;16.40;99.90
41882;DHT22;27562;47.524;12.404;2023-07-09T04:03:19;16.30;99.90
41882;DHT22;27562;47.524;12.404;2023-07-09T04:05:45;16.30;99.90
41882;DHT22;27562;47.524;12.404;2023-07-09T04:08:10;16.40;99.90
41882;DHT22;27562;47.524;12.404;2023-07-09T04:10:36;16.30;99.90
41882;DHT22;27562;47.524;12.404;2023-07-09T04:13:02;16.30;99.90
41882;DHT22;27562;47.524;12.404;2023-07-09T04:15:27;16.40;99.90
41882;DHT22;27562;47.524;12.404;2023-07-09T04:17:53;16.40;99.90
41882;DHT22;27562;47.524;12.404;2023-07-09T04:20:20;16.50;99.90
41882;DHT22;27562;47.524;12.404;2023-07-09T04:22:46;16.50;99.90
41882;DHT22;27562;47.524;12.404;2023-07-09T04:25:12;16.50;99.90
41882;DHT22;27562;47.524;12.404;2023-07-09T04:27:38;16.40;99.90
41882;DHT22;27562;47.524;12.404;2023-07-09T04:30:07;16.40;99.90
41882;DHT22;27562;47.524;12.404;2023-07-09T04:32:34;16.50;99.90
41882;DHT22;27562;47.524;12.404;2023-07-09T04:35:02;16.50;99.90
41882;DHT22;27562;47.524;12.404;2023-07-09T04:37:28;16.50;99.90
41882;DHT22;27562;47.524;12.404;2023-07-09T04:39:53;16.60;99.90
41882;DHT22;27562;47.524;12.404;2023-07-09T04:42:19;16.60;99.90
41882;DHT22;27562;47.524;12.404;2023-07-09T04:44:45;16.60;99.90
41882;DHT22;27562;47.524;12.404;2023-07-09T04:47:11;16.60;99.90
41882;DHT22;27562;47.524;12.404;2023-07-09T04:49:38;16.60;99.90
41882;DHT22;27562;47.524;12.404;2023-07-09T04:52:04;16.60;99.90
41882;DHT22;27562;47.524;12.404;2023-07-09T04:54:29;16.60;99.90
41882;DHT22;27562;47.524;12.404;2023-07-09T04:56:56;16.50;99.90
41882;DHT22;27562;47.524;12.404;2023-07-09T04:59:22;16.50;99.90
41882;DHT22;27562;47.524;12.404;2023-07-09T05:01:48;16.60;99.90
41882;DHT22;27562;47.524;12.404;2023-07-09T05:04:13;16.60;99.90
41882;DHT22;27562;47.524;12.404;2023-07-09T05:06:39;16.60;99.90
41882;DHT22;27562;47.524;12.404;2023-07-09T05:09:05;16.70;99.90
41882;DHT22;27562;47.524;12.404;2023-07-09T05:11:35;16.80;99.90
41882;DHT22;27562;47.524;12.404;2023-07-09T05:14:02;16.80;99.90
41882;DHT22;27562;47.524;12.404;2023-07-09T05:16:27;16.80;99.90
41882;DHT22;27562;47.524;12.404;2023-07-09T05:18:53;16.80;99.90
41882;DHT22;27562;47.524;12.404;2023-07-09T05:21:19;16.90;99.90
41882;DHT22;27562;47.524;12.404;2023-07-09T05:23:45;16.90;99.90
41882;DHT22;27562;47.524;12.404;2023-07-09T05:26:11;16.90;99.90
41882;DHT22;27562;47.524;12.404;2023-07-09T05:28:36;17.00;99.90
41882;DHT22;27562;47.524;12.404;2023-07-09T05:31:03;17.00;99.90
41882;DHT22;27562;47.524;12.404;2023-07-09T05:33:29;17.10;99.90
41882;DHT22;27562;47.524;12.404;2023-07-09T05:35:55;17.10;99.90
41882;DHT22;27562;47.524;12.404;2023-07-09T05:38:21;17.10;99.90
41882;DHT22;27562;47.524;12.404;2023-07-09T05:40:47;17.20;99.90
41882;DHT22;27562;47.524;12.404;2023-07-09T05:43:14;17.20;99.90
41882;DHT22;27562;47.524;12.404;2023-07-09T05:45:40;17.30;99.90
41882;DHT22;27562;47.524;12.404;2023-07-09T05:48:05;17.30;99.90
41882;DHT22;27562;47.524;12.404;2023-07-09T05:50:33;17.40;99.90
41882;DHT22;27562;47.524;12.404;2023-07-09T05:52:59;17.50;99.90
41882;DHT22;27562;47.524;12.404;2023-07-09T05:55:25;17.60;99.90
41882;DHT22;27562;47.524;12.404;2023-07-09T05:57:52;17.70;99.90
41882;DHT22;27562;47.524;12.404;2023-07-09T06:00:18;17.80;99.90
41882;DHT22;27562;47.524;12.404;2023-07-09T06:02:44;17.90;99.90
41882;DHT22;27562;47.524;12.404;2023-07-09T06:05:10;18.00;99.90
41882;DHT22;27562;47.524;12.404;2023-07-09T06:07:37;18.00;99.90
41882;DHT22;27562;47.524;12.404;2023-07-09T06:10:04;18.10;99.90
41882;DHT22;27562;47.524;12.404;2023-07-09T06:12:30;18.10;99.90
41882;DHT22;27562;47.524;12.404;2023-07-09T06:14:56;18.20;99.90
41882;DHT22;27562;47.524;12.404;2023-07-09T06:17:22;18.30;99.90
41882;DHT22;27562;47.524;12.404;2023-07-09T06:19:48;18.40;99.90
41882;DHT22;27562;47.524;12.404;2023-07-09T06:22:13;18.50;99.90
41882;DHT22;27562;47.524;12.404;2023-07-09T06:24:39;18.50;99.90
41882;DHT22;27562;47.524;12.404;2023-07-09T06:27:05;18.60;99.90
41882;DHT22;27562;47.524;12.404;2023-07-09T06:29:30;18.70;99.90
41882;DHT22;27562;47.524;12.404;2023-07-09T06:31:56;18.80;99.90
41882;DHT22;27562;47.524;12.404;2023-07-09T06:34:22;18.80;99.90
41882;DHT22;27562;47.524;12.404;2023-07-09T06:36:47;18.90;99.90
41882;DHT22;27562;47.524;12.404;2023-07-09T06:39:13;19.00;99.90
41882;DHT22;27562;47.524;12.404;2023-07-09T06:41:38;19.10;99.90
41882;DHT22;27562;47.524;12.404;2023-07-09T06:44:06;19.20;99.90
41882;DHT22;27562;47.524;12.404;2023-07-09T06:46:32;19.30;99.90
41882;DHT22;27562;47.524;12.404;2023-07-09T06:48:58;19.30;99.90
41882;DHT22;27562;47.524;12.404;2023-07-09T06:51:23;19.40;99.90
41882;DHT22;27562;47.524;12.404;2023-07-09T06:53:49;19.50;99.90
41882;DHT22;27562;47.524;12.404;2023-07-09T06:56:17;19.50;99.90
41882;DHT22;27562;47.524;12.404;2023-07-09T06:58:43;19.60;99.90
41882;DHT22;27562;47.524;12.404;2023-07-09T07:01:11;19.80;99.90
41882;DHT22;27562;47.524;12.404;2023-07-09T07:03:38;19.90;99.90
41882;DHT22;27562;47.524;12.404;2023-07-09T07:06:04;20.00;99.90
41882;DHT22;27562;47.524;12.404;2023-07-09T07:08:34;20.10;99.90
41882;DHT22;27562;47.524;12.404;2023-07-09T07:11:02;20.30;99.90
41882;DHT22;27562;47.524;12.404;2023-07-09T07:13:39;20.30;99.90
41882;DHT22;27562;47.524;12.404;2023-07-09T07:16:10;20.40;99.90
41882;DHT22;27562;47.524;12.404;2023-07-09T07:18:37;20.50;99.90
41882;DHT22;27562;47.524;12.404;2023-07-09T07:21:03;20.70;99.90
41882;DHT22;27562;47.524;12.404;2023-07-09T07:23:30;20.80;99.90
41882;DHT22;27562;47.524;12.404;2023-07-09T07:25:56;20.90;99.90
41882;DHT22;27562;47.524;12.404;2023-07-09T07:28:21;21.00;99.90
41882;DHT22;27562;47.524;12.404;2023-07-09T07:30:57;21.10;99.90
41882;DHT22;27562;47.524;12.404;2023-07-09T07:33:23;21.30;99.90
41882;DHT22;27562;47.524;12.404;2023-07-09T07:35:48;21.40;99.90
41882;DHT22;27562;47.524;12.404;2023-07-09T07:38:14;21.60;99.90
41882;DHT22;27562;47.524;12.404;2023-07-09T07:40:44;21.70;99.90
41882;DHT22;27562;47.524;12.404;2023-07-09T07:43:10;21.90;99.90
41882;DHT22;27562;47.524;12.404;2023-07-09T07:45:36;22.10;99.90
41882;DHT22;27562;47.524;12.404;2023-07-09T07:48:05;22.20;99.90
41882;DHT22;27562;47.524;12.404;2023-07-09T07:50:31;22.40;99.90
41882;DHT22;27562;47.524;12.404;2023-07-09T07:52:56;22.60;99.90
41882;DHT22;27562;47.524;12.404;2023-07-09T07:55:22;22.70;99.90
41882;DHT22;27562;47.524;12.404;2023-07-09T07:57:48;22.90;99.90
41882;DHT22;27562;47.524;12.404;2023-07-09T08:00:15;23.10;99.90
41882;DHT22;27562;47.524;12.404;2023-07-09T08:02:40;23.20;99.90
41882;DHT22;27562;47.524;12.404;2023-07-09T08:05:06;23.40;99.90
41882;DHT22;27562;47.524;12.404;2023-07-09T08:07:32;23.50;99.90
41882;DHT22;27562;47.524;12.404;2023-07-09T08:09:58;23.60;99.90
41882;DHT22;27562;47.524;12.404;2023-07-09T08:12:23;23.70;99.90
41882;DHT22;27562;47.524;12.404;2023-07-09T08:14:49;23.90;99.90
41882;DHT22;27562;47.524;12.404;2023-07-09T08:17:15;24.00;99.90
41882;DHT22;27562;47.524;12.404;2023-07-09T08:19:52;24.10;99.90
41882;DHT22;27562;47.524;12.404;2023-07-09T08:22:18;24.20;99.90
41882;DHT22;27562;47.524;12.404;2023-07-09T08:24:51;24.40;99.90
41882;DHT22;27562;47.524;12.404;2023-07-09T08:27:18;24.50;99.90
41882;DHT22;27562;47.524;12.404;2023-07-09T08:29:44;24.60;99.90
41882;DHT22;27562;47.524;12.404;2023-07-09T08:32:10;24.80;99.90
41882;DHT22;27562;47.524;12.404;2023-07-09T08:34:37;24.90;99.90
41882;DHT22;27562;47.524;12.404;2023-07-09T08:37:04;25.00;99.90
41882;DHT22;27562;47.524;12.404;2023-07-09T08:39:29;25.10;99.90
41882;DHT22;27562;47.524;12.404;2023-07-09T08:42:03;25.20;99.90
41882;DHT22;27562;47.524;12.404;2023-07-09T08:50:32;25.60;99.90
41882;DHT22;27562;47.524;12.404;2023-07-09T08:53:01;25.80;99.90
41882;DHT22;27562;47.524;12.404;2023-07-09T08:55:31;26.00;96.90
41882;DHT22;27562;47.524;12.404;2023-07-09T08:58:14;26.10;96.80
41882;DHT22;27562;47.524;12.404;2023-07-09T09:00:55;26.20;97.90
41882;DHT22;27562;47.524;12.404;2023-07-09T09:06:22;26.40;96.70
41882;DHT22;27562;47.524;12.404;2023-07-09T09:08:54;26.50;96.50
41882;DHT22;27562;47.524;12.404;2023-07-09T09:11:22;26.60;96.40
41882;DHT22;27562;47.524;12.404;2023-07-09T09:13:50;26.80;96.30
41882;DHT22;27562;47.524;12.404;2023-07-09T09:16:21;26.90;93.80
41882;DHT22;27562;47.524;12.404;2023-07-09T09:18:48;27.00;92.80
41882;DHT22;27562;47.524;12.404;2023-07-09T09:21:21;27.10;92.00
41882;DHT22;27562;47.524;12.404;2023-07-09T09:23:49;27.20;90.80
41882;DHT22;27562;47.524;12.404;2023-07-09T09:26:38;27.40;90.00
41882;DHT22;27562;47.524;12.404;2023-07-09T09:29:13;27.50;89.20
41882;DHT22;27562;47.524;12.404;2023-07-09T09:31:38;27.60;88.00
41882;DHT22;27562;47.524;12.404;2023-07-09T09:34:16;27.70;86.50
41882;DHT22;27562;47.524;12.404;2023-07-09T09:36:42;27.80;83.70
41882;DHT22;27562;47.524;12.404;2023-07-09T09:39:08;27.90;85.30
41882;DHT22;27562;47.524;12.404;2023-07-09T09:41:35;28.10;84.90
41882;DHT22;27562;47.524;12.404;2023-07-09T09:44:01;28.20;80.10
41882;DHT22;27562;47.524;12.404;2023-07-09T09:46:27;28.30;79.40
41882;DHT22;27562;47.524;12.404;2023-07-09T09:48:54;28.40;78.20
41882;DHT22;27562;47.524;12.404;2023-07-09T09:51:20;28.50;76.80
41882;DHT22;27562;47.524;12.404;2023-07-09T09:53:48;28.60;76.70
41882;DHT22;27562;47.524;12.404;2023-07-09T09:56:20;28.80;78.10
41882;DHT22;27562;47.524;12.404;2023-07-09T09:58:46;28.90;78.70
41882;DHT22;27562;47.524;12.404;2023-07-09T10:01:15;29.00;78.90
41882;DHT22;27562;47.524;12.404;2023-07-09T10:03:42;29.20;76.60
41882;DHT22;27562;47.524;12.404;2023-07-09T10:06:19;29.20;75.60
41882;DHT22;27562;47.524;12.404;2023-07-09T10:08:58;29.20;72.50
41882;DHT22;27562;47.524;12.404;2023-07-09T10:14:41;29.30;73.50
41882;DHT22;27562;47.524;12.404;2023-07-09T10:19:57;29.30;70.00
41882;DHT22;27562;47.524;12.404;2023-07-09T10:25:46;29.50;69.60
41882;DHT22;27562;47.524;12.404;2023-07-09T10:33:03;29.80;69.30
41882;DHT22;27562;47.524;12.404;2023-07-09T10:35:35;29.80;66.00
41882;DHT22;27562;47.524;12.404;2023-07-09T10:40:31;29.80;65.90
41882;DHT22;27562;47.524;12.404;2023-07-09T10:42:59;29.90;64.90
41882;DHT22;27562;47.524;12.404;2023-07-09T10:45:29;30.00;64.00
41882;DHT22;27562;47.524;12.404;2023-07-09T10:47:56;30.10;65.60
41882;DHT22;27562;47.524;12.404;2023-07-09T10:52:51;30.20;66.30
41882;DHT22;27562;47.524;12.404;2023-07-09T10:57:57;30.40;64.10
41882;DHT22;27562;47.524;12.404;2023-07-09T11:00:32;30.40;61.30
41882;DHT22;27562;47.524;12.404;2023-07-09T11:02:59;30.40;62.30
41882;DHT22;27562;47.524;12.404;2023-07-09T11:05:25;30.40;60.50
41882;DHT22;27562;47.524;12.404;2023-07-09T11:07:58;30.50;61.80
41882;DHT22;27562;47.524;12.404;2023-07-09T11:10:36;30.60;61.70
41882;DHT22;27562;47.524;12.404;2023-07-09T11:13:26;30.80;60.90
41882;DHT22;27562;47.524;12.404;2023-07-09T11:15:49;31.00;65.40
41882;DHT22;27562;47.524;12.404;2023-07-09T11:18:25;31.20;64.00
41882;DHT22;27562;47.524;12.404;2023-07-09T11:21:33;31.20;60.30
41882;DHT22;27562;47.524;12.404;2023-07-09T11:23:44;31.20;61.70
41882;DHT22;27562;47.524;12.404;2023-07-09T11:26:21;31.30;61.30
41882;DHT22;27562;47.524;12.404;2023-07-09T11:28:50;31.40;58.80
41882;DHT22;27562;47.524;12.404;2023-07-09T11:33:46;31.50;61.60
41882;DHT22;27562;47.524;12.404;2023-07-09T11:36:13;31.70;61.40
41882;DHT22;27562;47.524;12.404;2023-07-09T11:38:42;31.80;59.20
41882;DHT22;27562;47.524;12.404;2023-07-09T11:43:53;31.80;59.40
41882;DHT22;27562;47.524;12.404;2023-07-09T11:46:20;31.80;60.50
41882;DHT22;27562;47.524;12.404;2023-07-09T11:48:47;31.80;58.00
41882;DHT22;27562;47.524;12.404;2023-07-09T11:51:16;31.80;58.30
41882;DHT22;27562;47.524;12.404;2023-07-09T11:53:52;31.90;58.30
41882;DHT22;27562;47.524;12.404;2023-07-09T11:56:18;32.00;58.00
41882;DHT22;27562;47.524;12.404;2023-07-09T11:58:51;32.00;57.00
41882;DHT22;27562;47.524;12.404;2023-07-09T12:01:33;32.00;59.00
41882;DHT22;27562;47.524;12.404;2023-07-09T12:03:59;32.10;58.10
41882;DHT22;27562;47.524;12.404;2023-07-09T12:06:30;32.20;56.40
41882;DHT22;27562;47.524;12.404;2023-07-09T12:08:57;32.00;58.00
41882;DHT22;27562;47.524;12.404;2023-07-09T12:11:24;32.00;58.70
41882;DHT22;27562;47.524;12.404;2023-07-09T12:13:50;32.10;56.30
41882;DHT22;27562;47.524;12.404;2023-07-09T12:16:24;32.20;57.10
41882;DHT22;27562;47.524;12.404;2023-07-09T12:18:50;32.20;56.40
41882;DHT22;27562;47.524;12.404;2023-07-09T12:21:16;32.30;59.10
41882;DHT22;27562;47.524;12.404;2023-07-09T12:23:41;32.40;54.90
41882;DHT22;27562;47.524;12.404;2023-07-09T12:26:10;32.50;55.20
41882;DHT22;27562;47.524;12.404;2023-07-09T12:28:37;32.50;56.90
41882;DHT22;27562;47.524;12.404;2023-07-09T12:31:02;32.60;55.30
41882;DHT22;27562;47.524;12.404;2023-07-09T12:33:28;32.60;52.30
41882;DHT22;27562;47.524;12.404;2023-07-09T12:35:57;32.60;54.80
41882;DHT22;27562;47.524;12.404;2023-07-09T12:38:25;32.60;58.80
41882;DHT22;27562;47.524;12.404;2023-07-09T12:40:51;32.70;56.10
41882;DHT22;27562;47.524;12.404;2023-07-09T12:43:28;32.70;57.10
41882;DHT22;27562;47.524;12.404;2023-07-09T12:45:53;32.70;56.00
41882;DHT22;27562;47.524;12.404;2023-07-09T12:48:23;32.70;53.00
41882;DHT22;27562;47.524;12.404;2023-07-09T12:50:50;32.80;55.60
41882;DHT22;27562;47.524;12.404;2023-07-09T12:53:17;32.80;54.90
41882;DHT22;27562;47.524;12.404;2023-07-09T12:55:44;32.90;53.40
41882;DHT22;27562;47.524;12.404;2023-07-09T12:58:18;32.90;53.20
41882;DHT22;27562;47.524;12.404;2023-07-09T13:00:46;32.80;53.40
41882;DHT22;27562;47.524;12.404;2023-07-09T13:03:17;32.70;52.90
41882;DHT22;27562;47.524;12.404;2023-07-09T13:05:57;32.70;52.10
41882;DHT22;27562;47.524;12.404;2023-07-09T13:08:24;32.70;54.70
41882;DHT22;27562;47.524;12.404;2023-07-09T13:10:50;32.70;55.30
41882;DHT22;27562;47.524;12.404;2023-07-09T13:13:18;32.80;52.60
41882;DHT22;27562;47.524;12.404;2023-07-09T13:15:47;32.80;53.60
41882;DHT22;27562;47.524;12.404;2023-07-09T13:18:14;32.80;53.70
41882;DHT22;27562;47.524;12.404;2023-07-09T13:20:40;32.80;53.30
41882;DHT22;27562;47.524;12.404;2023-07-09T13:23:11;32.80;54.30
41882;DHT22;27562;47.524;12.404;2023-07-09T13:25:40;32.90;55.00
41882;DHT22;27562;47.524;12.404;2023-07-09T13:28:39;33.10;53.60
41882;DHT22;27562;47.524;12.404;2023-07-09T13:31:01;33.10;53.50
41882;DHT22;27562;47.524;12.404;2023-07-09T13:33:33;33.20;53.10
41882;DHT22;27562;47.524;12.404;2023-07-09T13:35:59;33.40;55.60
41882;DHT22;27562;47.524;12.404;2023-07-09T13:38:25;33.40;52.90
41882;DHT22;27562;47.524;12.404;2023-07-09T13:40:51;33.40;51.80
41882;DHT22;27562;47.524;12.404;2023-07-09T13:43:20;33.30;51.00
41882;DHT22;27562;47.524;12.404;2023-07-09T13:45:46;33.40;50.20
41882;DHT22;27562;47.524;12.404;2023-07-09T13:48:15;33.50;49.70
41882;DHT22;27562;47.524;12.404;2023-07-09T13:50:42;33.50;50.90
41882;DHT22;27562;47.524;12.404;2023-07-09T13:53:15;33.50;51.00
41882;DHT22;27562;47.524;12.404;2023-07-09T13:55:41;33.50;49.20
41882;DHT22;27562;47.524;12.404;2023-07-09T13:58:10;33.50;49.80
41882;DHT22;27562;47.524;12.404;2023-07-09T14:00:36;33.50;51.70
41882;DHT22;27562;47.524;12.404;2023-07-09T14:03:02;33.60;50.80
41882;DHT22;27562;47.524;12.404;2023-07-09T14:05:28;33.60;50.20
41882;DHT22;27562;47.524;12.404;2023-07-09T14:07:54;33.60;49.70
41882;DHT22;27562;47.524;12.404;2023-07-09T14:10:19;33.50;50.00
41882;DHT22;27562;47.524;12.404;2023-07-09T14:12:46;33.60;51.70
41882;DHT22;27562;47.524;12.404;2023-07-09T14:15:14;33.70;50.00
41882;DHT22;27562;47.524;12.404;2023-07-09T14:17:40;33.60;48.70
41882;DHT22;27562;47.524;12.404;2023-07-09T14:20:07;33.50;49.20
41882;DHT22;27562;47.524;12.404;2023-07-09T14:22:34;33.50;50.00
41882;DHT22;27562;47.524;12.404;2023-07-09T14:25:00;33.40;49.40
41882;DHT22;27562;47.524;12.404;2023-07-09T14:27:26;33.30;49.10
41882;DHT22;27562;47.524;12.404;2023-07-09T14:29:53;33.30;48.10
41882;DHT22;27562;47.524;12.404;2023-07-09T14:32:30;33.20;49.30
41882;DHT22;27562;47.524;12.404;2023-07-09T14:34:57;33.30;49.00
41882;DHT22;27562;47.524;12.404;2023-07-09T14:37:23;33.30;47.90
41882;DHT22;27562;47.524;12.404;2023-07-09T14:39:48;33.20;49.60
41882;DHT22;27562;47.524;12.404;2023-07-09T14:42:14;33.10;49.50
41882;DHT22;27562;47.524;12.404;2023-07-09T14:44:41;33.00;49.00
41882;DHT22;27562;47.524;12.404;2023-07-09T14:47:11;33.00;50.00
41882;DHT22;27562;47.524;12.404;2023-07-09T14:49:39;33.10;49.90
41882;DHT22;27562;47.524;12.404;2023-07-09T14:52:05;33.20;49.10
41882;DHT22;27562;47.524;12.404;2023-07-09T14:54:31;33.30;49.20
41882;DHT22;27562;47.524;12.404;2023-07-09T14:56:57;33.40;49.60
41882;DHT22;27562;47.524;12.404;2023-07-09T14:59:23;33.40;51.50
41882;DHT22;27562;47.524;12.404;2023-07-09T15:01:49;33.50;49.50
41882;DHT22;27562;47.524;12.404;2023-07-09T15:06:40;33.30;51.10
41882;DHT22;27562;47.524;12.404;2023-07-09T15:09:06;33.20;50.70
41882;DHT22;27562;47.524;12.404;2023-07-09T15:11:32;33.20;49.50
41882;DHT22;27562;47.524;12.404;2023-07-09T15:13:58;33.20;49.40
41882;DHT22;27562;47.524;12.404;2023-07-09T15:16:23;33.20;51.80
41882;DHT22;27562;47.524;12.404;2023-07-09T15:18:49;33.10;49.70
41882;DHT22;27562;47.524;12.404;2023-07-09T15:21:14;32.90;50.20
41882;DHT22;27562;47.524;12.404;2023-07-09T15:23:41;33.00;52.30
41882;DHT22;27562;47.524;12.404;2023-07-09T15:26:13;33.00;51.40
41882;DHT22;27562;47.524;12.404;2023-07-09T15:28:39;32.90;50.40
41882;DHT22;27562;47.524;12.404;2023-07-09T15:31:06;32.80;49.70
41882;DHT22;27562;47.524;12.404;2023-07-09T15:33:32;32.70;49.60
41882;DHT22;27562;47.524;12.404;2023-07-09T15:35:58;32.60;50.20
41882;DHT22;27562;47.524;12.404;2023-07-09T15:40:49;32.50;50.30
41882;DHT22;27562;47.524;12.404;2023-07-09T15:43:15;32.30;50.40
41882;DHT22;27562;47.524;12.404;2023-07-09T15:45:48;32.30;51.20
41882;DHT22;27562;47.524;12.404;2023-07-09T15:48:21;32.30;51.90
41882;DHT22;27562;47.524;12.404;2023-07-09T15:50:47;32.20;50.60
41882;DHT22;27562;47.524;12.404;2023-07-09T15:53:12;32.10;50.00
41882;DHT22;27562;47.524;12.404;2023-07-09T15:55:39;32.00;52.20
41882;DHT22;27562;47.524;12.404;2023-07-09T15:58:04;32.00;51.00
41882;DHT22;27562;47.524;12.404;2023-07-09T16:00:30;31.90;50.70
41882;DHT22;27562;47.524;12.404;2023-07-09T16:02:57;31.80;51.30